LOWS Airport Information

Runway Information
Runway 16 Length 9022 ft width 148 ft
Elevation 1411 ft Threshold 656 ft Heading 157
Runway 34 Length 9022 ft Width 148 ft
Elevation 1411 ft Threshold 787 ft Heading 337
Airport Frequencies
Type APP Name APP Frequency 123.725 MHZ
Type ATIS Name ATIS Frequency 125.725 MHZ
Type GND Name GND Frequency 121.75 MHZ
Type TWR Name TWR Frequency 118.1 MHZ
Airport Navaids
Type VOR-DME Name Salzburg Frequency 113800 KHZ
Type NDB Name Salzburg Frequency 382 KHZ
Type NDB Name Salzburg Frequency 410 KHZ
Type NDB Name Salzburg Frequency 356 KHZ
Airport Weather Information & NOTAM
ADDS - METARS form results

(1930 UTC 20 March 2019)
Data provider http://aviationweather.gov/metar/data/
 
METAR text: LOWS 201920Z 16004KT CAVOK 01/M04 Q1035 NOSIG
Conditions at: LOWS (SALZBURG AIRPORT, AT) observed 1920 UTC 20 March 2019
Temperature: 1.0°C (34°F)
Dewpoint: -4.0°C (25°F) [RH = 69%]
Pressure (altimeter): 30.56 inches Hg (1035.0 mb)
Winds: from the SSE (160 degrees) at 5 MPH (4 knots; 2.1 m/s)
Visibility: 6 or more miles (10+ km)
Ceiling: ceiling and visibility are OK
Clouds: unknown
Weather: no significant weather observed at this time

METAR text: LOWS 201850Z 23002KT CAVOK 03/M03 Q1034 NOSIG
Conditions at: LOWS (SALZBURG AIRPORT, AT) observed 1850 UTC 20 March 2019
Temperature: 3.0°C (37°F)
Dewpoint: -3.0°C (27°F) [RH = 65%]
Pressure (altimeter): 30.53 inches Hg (1034.0 mb)
Winds: from the SW (230 degrees) at 2 MPH (2 knots; 1.0 m/s)
Visibility: 6 or more miles (10+ km)
Ceiling: ceiling and visibility are OK
Clouds: unknown
Weather: no significant weather observed at this time

Forecast for: LOWS (SALZBURG AIRPORT, AT)
Text: TAF LOWS 201715Z 2018/2118 16005KT CAVOK TX14/2115Z TNM03/2104Z
Forecast period: 1800 UTC 20 March 2019 to 0800 UTC 21 March 2019
Forecast type: FROM: standard forecast or significant change
Winds: from the SSE (160 degrees) at 6 MPH (5 knots; 2.6 m/s)
Visibility: 6 or more miles 10+ km)
Ceiling: unknown
Clouds: missing
Weather: no significant weather forecast for this period
Text: BECMG 2108/2110 02007KT
Forecast period: 0800 to 1800 UTC 21 March 2019
Forecast type: BECOMING: Conditions expected to become as follows by 1000 UTC 21 March 2019
Winds: from the NNE (20 degrees) at 8 MPH (7 knots; 3.6 m/s)
Visibility: 6 or more miles 10+ km)
Ceiling: unknown
Clouds: missing
Weather: no significant weather forecast for this period